createdAt,value
2022-08-26T00:00:21.410Z,10.50
2022-08-26T00:03:10.199Z,9.50
2022-08-26T00:05:59.316Z,8.98
2022-08-26T00:08:47.847Z,9.35
2022-08-26T00:11:37.373Z,9.95
2022-08-26T00:14:31.073Z,9.30
2022-08-26T00:17:21.624Z,8.68
2022-08-26T00:20:12.806Z,8.18
2022-08-26T00:23:05.641Z,7.63
2022-08-26T00:25:56.791Z,8.20
2022-08-26T00:28:47.120Z,7.75
2022-08-26T00:31:38.528Z,8.15
2022-08-26T00:34:29.855Z,7.43
2022-08-26T00:37:19.942Z,7.43
2022-08-26T00:40:12.578Z,7.90
2022-08-26T00:43:00.949Z,8.00
2022-08-26T00:45:51.163Z,7.65
2022-08-26T00:48:41.887Z,6.85
2022-08-26T00:51:32.040Z,7.50
2022-08-26T00:54:23.170Z,7.53
2022-08-26T00:57:16.755Z,6.90
2022-08-26T01:00:11.129Z,7.63
2022-08-26T01:03:02.168Z,8.60
2022-08-26T01:05:57.144Z,9.35
2022-08-26T01:08:46.995Z,8.77
2022-08-26T01:11:37.828Z,8.57
2022-08-26T01:14:31.348Z,8.30
2022-08-26T01:17:21.098Z,7.60
2022-08-26T01:20:13.780Z,7.53
2022-08-26T01:23:05.947Z,7.35
2022-08-26T01:25:58.259Z,7.72
2022-08-26T01:28:46.411Z,7.10
2022-08-26T01:31:41.991Z,7.53
2022-08-26T01:34:30.773Z,6.95
2022-08-26T01:37:19.848Z,6.80
2022-08-26T01:40:11.940Z,7.30
2022-08-26T01:42:59.460Z,7.22
2022-08-26T01:45:47.918Z,8.07
2022-08-26T01:48:37.042Z,8.48
2022-08-26T01:51:27.579Z,8.10
2022-08-26T01:54:15.012Z,8.40
2022-08-26T01:57:04.187Z,8.68
2022-08-26T01:59:52.115Z,8.77
2022-08-26T02:02:39.622Z,9.40
2022-08-26T02:05:26.815Z,8.93
2022-08-26T02:08:15.376Z,8.48
2022-08-26T02:11:13.492Z,8.75
2022-08-26T02:14:04.751Z,9.10
2022-08-26T02:16:53.483Z,9.68
2022-08-26T02:19:42.696Z,9.80
2022-08-26T02:22:30.365Z,10.00
2022-08-26T02:25:19.687Z,9.07
2022-08-26T02:28:07.814Z,9.50
2022-08-26T02:30:57.535Z,9.23
2022-08-26T02:33:46.626Z,9.15
2022-08-26T02:36:34.773Z,10.38
2022-08-26T02:39:22.541Z,9.30
2022-08-26T02:42:10.000Z,9.50
2022-08-26T02:44:57.569Z,10.20
2022-08-26T02:47:47.250Z,10.70
2022-08-26T02:50:35.288Z,12.00
2022-08-26T02:53:25.330Z,10.30
2022-08-26T02:56:13.064Z,11.93
2022-08-26T02:59:00.886Z,11.48
2022-08-26T03:01:50.035Z,12.20
2022-08-26T03:04:39.644Z,13.10
2022-08-26T03:07:27.459Z,13.65
2022-08-26T03:10:14.785Z,15.80
2022-08-26T03:13:05.114Z,17.23
2022-08-26T03:15:53.232Z,18.88
2022-08-26T03:18:40.705Z,18.33
2022-08-26T03:21:31.140Z,20.73
2022-08-26T03:24:19.115Z,20.88
2022-08-26T03:27:07.338Z,22.48
2022-08-26T03:30:12.453Z,23.85
2022-08-26T03:32:59.674Z,23.70
2022-08-26T03:35:50.689Z,25.15
2022-08-26T03:38:39.225Z,26.52
2022-08-26T03:41:26.476Z,25.50
2022-08-26T03:44:17.043Z,25.67
2022-08-26T03:47:05.034Z,27.92
2022-08-26T03:49:53.079Z,26.45
2022-08-26T03:52:43.720Z,28.90
2022-08-26T03:55:33.835Z,30.02
2022-08-26T03:58:21.584Z,29.83
2022-08-26T04:01:09.333Z,31.17
2022-08-26T04:04:00.007Z,31.92
2022-08-26T04:06:48.272Z,34.28
2022-08-26T04:09:37.066Z,34.92
2022-08-26T04:12:27.443Z,35.70
2022-08-26T04:15:17.856Z,36.78
2022-08-26T04:18:05.180Z,36.75
2022-08-26T04:20:52.816Z,38.80
2022-08-26T04:23:47.659Z,38.25
2022-08-26T04:26:39.382Z,38.17
2022-08-26T04:29:28.615Z,37.17
2022-08-26T04:32:16.735Z,41.17
2022-08-26T04:35:04.721Z,41.80
2022-08-26T04:37:53.543Z,40.17
2022-08-26T04:40:46.665Z,42.45
2022-08-26T04:43:35.125Z,42.13
2022-08-26T04:46:25.739Z,43.42
2022-08-26T04:49:13.941Z,46.65
2022-08-26T04:52:01.366Z,48.35
2022-08-26T04:54:49.775Z,50.40
2022-08-26T04:57:37.034Z,54.15
2022-08-26T05:00:25.508Z,55.17
2022-08-26T05:03:15.786Z,60.90
2022-08-26T05:06:05.608Z,60.47
2022-08-26T05:08:52.868Z,60.97
2022-08-26T05:11:40.528Z,62.05
2022-08-26T05:14:29.532Z,59.88
2022-08-26T05:17:17.071Z,59.17
2022-08-26T05:20:06.692Z,59.65
2022-08-26T05:22:54.455Z,57.10
2022-08-26T05:25:43.361Z,63.75
2022-08-26T05:28:31.662Z,61.50
2022-08-26T05:31:21.334Z,60.55
2022-08-26T05:34:09.337Z,62.42
2022-08-26T05:36:58.434Z,61.53
2022-08-26T05:39:51.172Z,61.60
2022-08-26T05:42:39.635Z,65.20
2022-08-26T05:45:27.483Z,61.70
2022-08-26T05:48:15.183Z,59.78
2022-08-26T05:51:03.864Z,64.32
2022-08-26T05:53:54.673Z,61.22
2022-08-26T05:56:42.707Z,62.13
2022-08-26T05:59:30.383Z,61.47
2022-08-26T06:02:20.014Z,64.18
2022-08-26T06:05:08.169Z,61.22
2022-08-26T06:08:14.363Z,63.88
2022-08-26T06:11:04.403Z,61.08
2022-08-26T06:13:53.358Z,62.50
2022-08-26T06:16:43.813Z,60.17
2022-08-26T06:19:32.878Z,59.22
2022-08-26T06:22:39.015Z,61.38
2022-08-26T06:25:42.403Z,63.95
2022-08-26T06:28:32.203Z,63.13
2022-08-26T06:31:19.878Z,61.28
2022-08-26T06:34:10.764Z,62.10
2022-08-26T06:37:02.244Z,58.10
2022-08-26T06:39:51.287Z,61.50
2022-08-26T06:42:39.046Z,62.25
2022-08-26T06:45:28.304Z,56.95
2022-08-26T06:48:17.785Z,57.85
2022-08-26T06:51:06.994Z,55.40
2022-08-26T06:53:55.835Z,55.65
2022-08-26T06:56:45.393Z,55.50
2022-08-26T06:59:35.196Z,55.70
2022-08-26T07:02:24.260Z,55.75
2022-08-26T07:05:15.628Z,56.00
2022-08-26T07:08:03.611Z,56.40
2022-08-26T07:10:51.267Z,53.17
2022-08-26T07:13:43.998Z,56.45
2022-08-26T07:16:31.154Z,54.97
2022-08-26T07:19:29.965Z,54.53
2022-08-26T07:22:18.810Z,56.33
2022-08-26T07:25:07.669Z,55.20
2022-08-26T07:27:54.744Z,52.53
2022-08-26T07:30:42.382Z,54.92
2022-08-26T07:33:30.784Z,54.25
2022-08-26T07:36:20.224Z,54.80
2022-08-26T07:39:07.906Z,54.08
2022-08-26T07:41:56.101Z,51.78
2022-08-26T07:44:45.427Z,54.17
2022-08-26T07:47:32.671Z,54.70
2022-08-26T07:50:20.236Z,53.45
2022-08-26T07:53:10.598Z,55.42
2022-08-26T07:55:59.005Z,51.35
2022-08-26T07:58:50.887Z,53.47
2022-08-26T08:01:39.709Z,52.20
2022-08-26T08:04:28.339Z,54.92
2022-08-26T08:07:15.551Z,51.90
2022-08-26T08:10:09.625Z,52.30
2022-08-26T08:12:59.222Z,54.63
2022-08-26T08:15:47.573Z,53.35
2022-08-26T08:18:37.650Z,53.88
2022-08-26T08:21:25.401Z,53.83
2022-08-26T08:24:12.959Z,50.70
2022-08-26T08:27:02.111Z,55.22
2022-08-26T08:29:50.099Z,52.00
2022-08-26T08:32:38.750Z,52.47
2022-08-26T08:35:26.455Z,52.67
2022-08-26T08:38:13.826Z,51.55
2022-08-26T08:41:00.956Z,50.42
2022-08-26T08:43:53.238Z,48.97
2022-08-26T08:46:42.835Z,47.35
2022-08-26T08:49:30.983Z,47.38
2022-08-26T08:52:22.456Z,49.45
2022-08-26T08:55:11.883Z,51.92
2022-08-26T08:58:03.940Z,50.90
2022-08-26T09:00:55.105Z,50.25
2022-08-26T09:03:50.444Z,48.33
2022-08-26T09:06:37.584Z,49.08
2022-08-26T09:09:31.854Z,51.22
2022-08-26T09:12:29.422Z,47.72
2022-08-26T09:15:18.346Z,50.25
2022-08-26T09:18:11.225Z,51.38
2022-08-26T09:21:03.345Z,51.25
2022-08-26T09:23:52.251Z,50.80
2022-08-26T09:26:45.543Z,48.08
2022-08-26T09:29:42.839Z,49.78
2022-08-26T09:32:32.473Z,52.03
2022-08-26T09:35:26.436Z,49.25
2022-08-26T09:38:22.075Z,49.60
2022-08-26T09:41:21.312Z,47.70
2022-08-26T09:44:16.889Z,50.60
2022-08-26T09:47:06.258Z,51.13
2022-08-26T09:49:58.864Z,48.97
2022-08-26T09:52:47.551Z,49.53
2022-08-26T09:55:35.539Z,46.47
2022-08-26T09:58:33.627Z,48.33
2022-08-26T10:01:27.702Z,46.45
2022-08-26T10:04:22.668Z,46.00
2022-08-26T10:07:10.623Z,43.63
2022-08-26T10:09:59.999Z,43.08
2022-08-26T10:12:51.048Z,42.08
2022-08-26T10:15:48.630Z,44.15
2022-08-26T10:18:40.154Z,43.40
2022-08-26T10:21:31.719Z,46.63
2022-08-26T10:24:21.591Z,44.25
2022-08-26T10:27:17.583Z,47.88
2022-08-26T10:30:06.627Z,46.90
2022-08-26T10:32:56.723Z,48.47
2022-08-26T10:35:57.160Z,52.25
2022-08-26T10:38:44.424Z,50.03
2022-08-26T10:41:33.820Z,52.90
2022-08-26T10:44:23.297Z,52.72
2022-08-26T10:47:13.831Z,51.10
2022-08-26T10:50:03.659Z,53.20
2022-08-26T10:53:00.183Z,51.85
2022-08-26T10:55:51.758Z,52.45
2022-08-26T10:58:50.042Z,54.03
2022-08-26T11:01:47.005Z,53.22
2022-08-26T11:04:45.622Z,52.88
2022-08-26T11:07:37.727Z,53.78
2022-08-26T11:10:43.612Z,50.72
2022-08-26T11:13:49.591Z,50.97
2022-08-26T11:16:43.471Z,50.78
2022-08-26T11:20:00.312Z,52.13
2022-08-26T11:22:49.382Z,49.65
2022-08-26T11:25:56.342Z,47.85
2022-08-26T11:28:45.331Z,45.33
2022-08-26T11:31:50.875Z,44.33
2022-08-26T11:34:56.400Z,37.67
2022-08-26T11:37:47.233Z,36.63
2022-08-26T11:40:40.766Z,33.80
2022-08-26T11:43:30.446Z,31.92
2022-08-26T11:46:25.203Z,30.73
2022-08-26T11:49:13.151Z,27.42
2022-08-26T11:52:13.393Z,25.38
2022-08-26T11:55:01.380Z,23.17
2022-08-26T11:57:50.664Z,23.70
2022-08-26T12:00:50.654Z,22.85
2022-08-26T12:03:41.499Z,22.38
2022-08-26T12:06:29.872Z,21.33
2022-08-26T12:09:23.967Z,19.10
2022-08-26T12:12:12.890Z,18.48
2022-08-26T12:15:08.704Z,17.10
2022-08-26T12:17:56.459Z,16.98
2022-08-26T12:20:48.567Z,17.08
2022-08-26T12:23:42.072Z,16.73
2022-08-26T12:26:33.818Z,15.98
2022-08-26T12:29:26.747Z,16.33
2022-08-26T12:32:15.715Z,14.82
2022-08-26T12:37:53.590Z,14.82
2022-08-26T12:40:42.122Z,15.27
2022-08-26T12:43:41.852Z,14.70
2022-08-26T12:46:30.736Z,13.68
2022-08-26T12:49:20.031Z,15.23
2022-08-26T12:52:09.015Z,16.05
2022-08-26T12:55:03.236Z,15.52
2022-08-26T12:57:50.899Z,14.93
2022-08-26T13:00:41.092Z,14.30
2022-08-26T13:03:30.263Z,15.30
2022-08-26T13:06:25.881Z,14.98
2022-08-26T13:09:27.901Z,14.75
2022-08-26T13:12:24.259Z,13.88
2022-08-26T13:15:11.671Z,13.23
2022-08-26T13:18:00.413Z,13.48
2022-08-26T13:20:47.732Z,12.82
2022-08-26T13:23:38.375Z,13.57
2022-08-26T13:26:28.815Z,13.55
2022-08-26T13:29:16.826Z,13.07
2022-08-26T13:32:05.668Z,13.07
2022-08-26T13:34:54.919Z,13.98
2022-08-26T13:37:41.979Z,13.38
2022-08-26T13:40:33.853Z,12.50
2022-08-26T13:43:22.127Z,13.82
2022-08-26T13:46:09.519Z,13.52
2022-08-26T13:48:56.907Z,12.30
2022-08-26T13:51:45.902Z,13.05
2022-08-26T13:54:33.630Z,13.45
2022-08-26T13:57:24.827Z,12.30
2022-08-26T14:00:16.173Z,12.70
2022-08-26T14:03:04.085Z,12.20
2022-08-26T14:05:51.053Z,11.95
2022-08-26T14:08:40.132Z,11.55
2022-08-26T14:11:29.208Z,11.88
2022-08-26T14:14:25.114Z,11.70
2022-08-26T14:17:13.715Z,11.07
2022-08-26T14:20:01.594Z,11.55
2022-08-26T14:23:12.721Z,10.98
2022-08-26T14:25:57.589Z,10.85
2022-08-26T14:28:44.861Z,10.65
2022-08-26T14:31:33.122Z,11.95
2022-08-26T14:34:20.490Z,11.38
2022-08-26T14:37:09.876Z,9.82
2022-08-26T14:39:59.864Z,11.27
2022-08-26T14:42:52.676Z,10.90
2022-08-26T14:48:38.812Z,10.27
2022-08-26T14:51:26.747Z,11.10
2022-08-26T14:54:14.696Z,11.90
2022-08-26T14:57:03.631Z,11.10
2022-08-26T14:59:51.998Z,12.00
2022-08-26T15:02:39.586Z,11.40
2022-08-26T15:05:27.256Z,10.98
2022-08-26T15:08:14.153Z,11.48
2022-08-26T15:11:01.723Z,10.18
2022-08-26T15:13:48.905Z,9.93
2022-08-26T15:16:38.987Z,10.90
2022-08-26T15:19:26.996Z,11.27
2022-08-26T15:22:14.587Z,9.95
2022-08-26T15:25:01.849Z,10.13
2022-08-26T15:27:49.064Z,10.27
2022-08-26T15:30:36.418Z,9.52
2022-08-26T15:33:25.115Z,9.60
2022-08-26T15:36:12.451Z,9.70
2022-08-26T15:39:00.489Z,10.30
2022-08-26T15:41:48.208Z,10.05
2022-08-26T15:44:36.687Z,8.98
2022-08-26T15:47:23.920Z,9.90
2022-08-26T15:50:13.076Z,8.90
2022-08-26T15:53:01.452Z,8.93
2022-08-26T15:55:48.863Z,8.77
2022-08-26T15:58:37.005Z,8.52
2022-08-26T16:01:27.205Z,8.95
2022-08-26T16:04:16.511Z,8.73
2022-08-26T16:07:05.950Z,8.38
2022-08-26T16:09:54.642Z,7.95
2022-08-26T16:12:42.275Z,8.18
2022-08-26T16:15:29.457Z,8.40
2022-08-26T16:18:16.982Z,9.05
2022-08-26T16:21:13.729Z,8.20
2022-08-26T16:24:03.579Z,9.20
2022-08-26T16:26:51.087Z,9.43
2022-08-26T16:29:39.591Z,9.45
2022-08-26T16:32:30.749Z,9.43
2022-08-26T16:35:18.684Z,9.93
2022-08-26T16:38:06.807Z,9.68
2022-08-26T16:40:55.743Z,9.70
2022-08-26T16:43:43.231Z,9.73
2022-08-26T16:46:30.379Z,9.70
2022-08-26T16:49:17.599Z,9.77
2022-08-26T16:52:05.445Z,10.18
2022-08-26T16:54:53.176Z,10.15
2022-08-26T16:57:42.590Z,9.32
2022-08-26T17:00:33.003Z,9.80
2022-08-26T17:03:20.928Z,10.15
2022-08-26T17:06:08.639Z,9.55
2022-08-26T17:08:56.150Z,9.52
2022-08-26T17:11:43.560Z,10.20
2022-08-26T17:14:33.711Z,10.70
2022-08-26T17:17:20.963Z,10.32
2022-08-26T17:20:10.166Z,10.60
2022-08-26T17:22:57.428Z,10.95
2022-08-26T17:25:44.544Z,10.48
2022-08-26T17:28:32.196Z,10.98
2022-08-26T17:31:21.653Z,11.10
2022-08-26T17:34:09.784Z,10.32
2022-08-26T17:36:56.947Z,9.88
2022-08-26T17:39:44.293Z,9.90
2022-08-26T17:42:32.059Z,9.93
2022-08-26T17:48:11.711Z,9.98
2022-08-26T17:50:59.917Z,9.82
2022-08-26T17:53:48.951Z,10.65
2022-08-26T17:56:36.477Z,10.32
2022-08-26T17:59:24.764Z,9.27
2022-08-26T18:02:17.803Z,10.60
2022-08-26T18:05:07.070Z,9.45
2022-08-26T18:07:54.210Z,10.20
2022-08-26T18:10:42.691Z,10.90
2022-08-26T18:13:30.065Z,11.20
2022-08-26T18:16:17.885Z,11.50
2022-08-26T18:19:05.689Z,10.75
2022-08-26T18:21:54.179Z,9.75
2022-08-26T18:24:41.736Z,10.13
2022-08-26T18:27:45.667Z,9.45
2022-08-26T18:30:33.356Z,10.02
2022-08-26T18:33:22.079Z,9.85
2022-08-26T18:36:09.635Z,9.27
2022-08-26T18:38:59.036Z,9.32
2022-08-26T18:41:47.558Z,9.40
2022-08-26T18:44:35.233Z,9.15
2022-08-26T18:47:22.867Z,8.93
2022-08-26T18:50:11.068Z,9.40
2022-08-26T18:52:58.264Z,8.77
2022-08-26T18:55:47.253Z,8.70
2022-08-26T18:58:34.524Z,9.05
2022-08-26T19:01:26.632Z,8.85
2022-08-26T19:04:15.768Z,10.20
2022-08-26T19:07:02.953Z,8.60
2022-08-26T19:09:53.928Z,9.40
2022-08-26T19:12:43.889Z,8.32
2022-08-26T19:15:31.358Z,8.85
2022-08-26T19:18:19.915Z,8.68
2022-08-26T19:21:07.563Z,8.05
2022-08-26T19:23:58.138Z,8.50
2022-08-26T19:26:46.658Z,9.20
2022-08-26T19:29:36.107Z,9.48
2022-08-26T19:32:24.279Z,9.85
2022-08-26T19:35:11.615Z,9.65
2022-08-26T19:37:58.871Z,9.13
2022-08-26T19:40:45.760Z,9.38
2022-08-26T19:43:32.764Z,9.68
2022-08-26T19:46:23.354Z,9.30
2022-08-26T19:49:10.587Z,10.07
2022-08-26T19:51:57.527Z,10.30
2022-08-26T19:54:44.651Z,10.75
2022-08-26T19:57:32.134Z,12.05
2022-08-26T20:00:22.086Z,10.90
2022-08-26T20:03:15.875Z,12.55
2022-08-26T20:06:03.936Z,11.02
2022-08-26T20:08:52.119Z,11.00
2022-08-26T20:11:43.766Z,10.68
2022-08-26T20:14:32.038Z,12.00
2022-08-26T20:17:19.913Z,12.50
2022-08-26T20:20:32.974Z,13.60
2022-08-26T20:23:21.603Z,12.25
2022-08-26T20:26:08.910Z,14.05
2022-08-26T20:28:57.841Z,13.48
2022-08-26T20:31:45.179Z,15.68
2022-08-26T20:34:32.871Z,16.77
2022-08-26T20:37:22.396Z,18.35
2022-08-26T20:40:10.925Z,17.48
2022-08-26T20:42:58.827Z,17.63
2022-08-26T20:45:46.581Z,18.35
2022-08-26T20:48:33.999Z,17.63
2022-08-26T20:51:21.580Z,15.23
2022-08-26T20:54:12.335Z,15.45
2022-08-26T20:56:59.999Z,15.93
2022-08-26T20:59:47.743Z,16.15
2022-08-26T21:02:39.748Z,14.77
2022-08-26T21:05:27.683Z,14.48
2022-08-26T21:08:15.559Z,13.52
2022-08-26T21:11:12.975Z,14.20
2022-08-26T21:14:04.435Z,14.25
2022-08-26T21:17:04.067Z,14.10
2022-08-26T21:19:51.892Z,13.52
2022-08-26T21:22:39.819Z,13.90
2022-08-26T21:25:27.434Z,13.98
2022-08-26T21:28:16.175Z,13.60
2022-08-26T21:31:04.616Z,12.43
2022-08-26T21:33:53.139Z,12.93
2022-08-26T21:36:41.022Z,12.30
2022-08-26T21:39:28.860Z,12.98
2022-08-26T21:42:16.335Z,13.60
2022-08-26T21:45:05.700Z,12.73
2022-08-26T21:47:53.673Z,13.10
2022-08-26T21:50:41.347Z,14.43
2022-08-26T21:53:28.929Z,14.52
2022-08-26T21:56:18.606Z,15.00
2022-08-26T21:59:06.305Z,13.95
2022-08-26T22:01:56.821Z,17.38
2022-08-26T22:04:48.735Z,17.90
2022-08-26T22:07:36.902Z,17.75
2022-08-26T22:10:24.134Z,18.48
2022-08-26T22:13:12.760Z,18.27
2022-08-26T22:16:02.986Z,18.83
2022-08-26T22:18:53.366Z,16.15
2022-08-26T22:21:41.163Z,16.42
2022-08-26T22:24:28.927Z,16.85
2022-08-26T22:27:16.057Z,16.50
2022-08-26T22:30:03.723Z,15.90
2022-08-26T22:32:51.636Z,15.45
2022-08-26T22:35:42.548Z,15.30
2022-08-26T22:38:30.471Z,14.43
2022-08-26T22:41:19.073Z,14.07
2022-08-26T22:44:06.566Z,12.43
2022-08-26T22:46:55.479Z,11.90
2022-08-26T22:49:43.423Z,11.50
2022-08-26T22:52:32.590Z,14.07
2022-08-26T22:55:19.775Z,11.23
2022-08-26T22:58:07.703Z,11.43
2022-08-26T23:00:55.098Z,10.52
2022-08-26T23:03:42.944Z,10.73
2022-08-26T23:06:30.467Z,10.70
2022-08-26T23:09:19.288Z,10.15
2022-08-26T23:12:06.689Z,9.93
2022-08-26T23:14:53.720Z,10.43
2022-08-26T23:17:41.031Z,10.15
2022-08-26T23:20:28.821Z,9.02
2022-08-26T23:23:15.811Z,10.48
2022-08-26T23:26:06.238Z,9.82
2022-08-26T23:28:53.659Z,9.43
2022-08-26T23:31:41.998Z,10.48
2022-08-26T23:34:46.715Z,10.55
2022-08-26T23:37:36.628Z,9.05
2022-08-26T23:40:27.954Z,9.57
2022-08-26T23:43:16.731Z,9.32
2022-08-26T23:46:03.924Z,9.05
2022-08-26T23:48:52.399Z,9.27
2022-08-26T23:51:57.059Z,9.10
2022-08-26T23:57:31.394Z,8.27
